createdAt,value
2022-11-15T00:00:42.923Z,99.24
2022-11-15T00:01:42.992Z,99.24
2022-11-15T00:02:42.914Z,98.93
2022-11-15T00:03:42.921Z,99.34
2022-11-15T00:04:42.907Z,99.24
2022-11-15T00:05:42.904Z,99.13
2022-11-15T00:06:42.902Z,99.24
2022-11-15T00:07:55.101Z,99.24
2022-11-15T00:08:42.892Z,99.44
2022-11-15T00:09:45.922Z,99.24
2022-11-15T00:10:42.891Z,99.34
2022-11-15T00:11:42.887Z,99.34
2022-11-15T00:12:42.883Z,99.03
2022-11-15T00:13:42.877Z,99.24
2022-11-15T00:14:42.871Z,99.24
2022-11-15T00:15:42.891Z,99.13
2022-11-15T00:16:42.863Z,99.24
2022-11-15T00:17:42.867Z,99.44
2022-11-15T00:18:47.786Z,99.85
2022-11-15T00:19:42.855Z,99.54
2022-11-15T00:20:42.848Z,99.99
2022-11-15T00:21:42.850Z,99.99
2022-11-15T00:22:42.853Z,99.99
2022-11-15T00:23:42.845Z,99.99
2022-11-15T00:24:42.844Z,99.80
2022-11-15T00:25:42.834Z,99.80
2022-11-15T00:26:42.827Z,99.99
2022-11-15T00:27:42.826Z,99.99
2022-11-15T00:28:42.826Z,99.99
2022-11-15T00:29:42.817Z,99.99
2022-11-15T00:30:42.818Z,99.99
2022-11-15T00:31:42.833Z,99.99
2022-11-15T00:32:42.812Z,99.99
2022-11-15T00:33:42.810Z,99.99
2022-11-15T00:34:42.798Z,99.99
2022-11-15T00:35:42.803Z,99.99
2022-11-15T00:36:42.791Z,99.99
2022-11-15T00:37:42.792Z,99.99
2022-11-15T00:38:42.791Z,99.99
2022-11-15T00:39:42.792Z,99.99
2022-11-15T00:40:42.780Z,99.99
2022-11-15T00:41:42.777Z,99.99
2022-11-15T00:42:42.876Z,99.99
2022-11-15T00:43:42.776Z,99.99
2022-11-15T00:44:42.765Z,99.99
2022-11-15T00:45:42.769Z,99.99
2022-11-15T00:46:42.756Z,99.99
2022-11-15T00:47:42.779Z,99.99
2022-11-15T00:48:42.750Z,99.99
2022-11-15T00:49:42.751Z,99.99
2022-11-15T00:50:42.746Z,99.99
2022-11-15T00:51:42.744Z,99.99
2022-11-15T00:52:42.739Z,99.99
2022-11-15T00:53:42.735Z,99.99
2022-11-15T00:54:42.731Z,99.99
2022-11-15T00:55:42.732Z,99.99
2022-11-15T00:56:42.728Z,99.99
2022-11-15T00:57:42.723Z,99.99
2022-11-15T00:58:42.719Z,99.99
2022-11-15T00:59:42.718Z,99.99
2022-11-15T01:00:42.816Z,99.99
2022-11-15T01:01:42.707Z,99.99
2022-11-15T01:02:42.710Z,99.99
2022-11-15T01:03:42.728Z,99.99
2022-11-15T01:04:42.694Z,99.99
2022-11-15T01:05:42.701Z,99.99
2022-11-15T01:06:42.687Z,99.99
2022-11-15T01:07:42.683Z,99.99
2022-11-15T01:08:42.685Z,99.99
2022-11-15T01:09:42.677Z,99.99
2022-11-15T01:10:42.674Z,99.99
2022-11-15T01:11:42.684Z,99.99
2022-11-15T01:12:42.665Z,99.99
2022-11-15T01:13:42.670Z,99.99
2022-11-15T01:14:42.661Z,99.99
2022-11-15T01:15:42.660Z,99.99
2022-11-15T01:16:42.654Z,99.99
2022-11-15T01:17:42.653Z,99.99
2022-11-15T01:18:42.648Z,99.99
2022-11-15T01:19:42.668Z,99.99
2022-11-15T01:20:42.644Z,99.99
2022-11-15T01:21:42.640Z,99.99
2022-11-15T01:22:42.640Z,99.99
2022-11-15T01:23:42.635Z,99.99
2022-11-15T01:24:42.625Z,99.99
2022-11-15T01:25:42.623Z,99.99
2022-11-15T01:26:42.630Z,99.99
2022-11-15T01:27:42.621Z,99.99
2022-11-15T01:28:42.615Z,99.99
2022-11-15T01:29:42.608Z,99.99
2022-11-15T01:30:42.607Z,99.99
2022-11-15T01:31:42.603Z,99.99
2022-11-15T01:32:42.599Z,99.99
2022-11-15T01:33:42.611Z,99.99
2022-11-15T01:34:42.593Z,99.99
2022-11-15T01:35:42.618Z,99.99
2022-11-15T01:36:42.587Z,99.99
2022-11-15T01:37:42.591Z,99.99
2022-11-15T01:38:42.582Z,99.99
2022-11-15T01:39:42.578Z,99.99
2022-11-15T01:40:42.572Z,99.99
2022-11-15T01:41:42.572Z,99.99
2022-11-15T01:42:42.616Z,99.99
2022-11-15T01:43:42.563Z,99.99
2022-11-15T01:44:42.564Z,99.99
2022-11-15T01:45:42.564Z,99.99
2022-11-15T01:46:42.552Z,99.99
2022-11-15T01:47:42.702Z,99.99
2022-11-15T01:48:42.546Z,99.99
2022-11-15T01:49:42.548Z,99.99
2022-11-15T01:50:42.537Z,99.99
2022-11-15T01:51:42.555Z,99.99
2022-11-15T01:52:42.683Z,99.99
2022-11-15T01:53:42.533Z,99.99
2022-11-15T01:54:42.531Z,99.99
2022-11-15T01:55:42.531Z,99.98
2022-11-15T01:56:42.517Z,99.98
2022-11-15T01:57:42.524Z,99.99
2022-11-15T01:58:42.518Z,99.99
2022-11-15T01:59:42.512Z,99.99
2022-11-15T02:00:42.552Z,99.99
2022-11-15T02:01:42.506Z,99.99
2022-11-15T02:02:42.499Z,99.99
2022-11-15T02:03:42.498Z,99.99
2022-11-15T02:04:42.494Z,99.99
2022-11-15T02:05:42.489Z,99.99
2022-11-15T02:06:42.486Z,99.99
2022-11-15T02:07:42.504Z,99.99
2022-11-15T02:08:42.479Z,99.99
2022-11-15T02:09:42.478Z,99.99
2022-11-15T02:10:42.473Z,99.99
2022-11-15T02:11:42.470Z,99.99
2022-11-15T02:12:42.474Z,99.99
2022-11-15T02:13:42.463Z,99.99
2022-11-15T02:14:42.459Z,99.99
2022-11-15T02:15:42.463Z,99.82
2022-11-15T02:16:42.451Z,99.99
2022-11-15T02:17:42.457Z,99.99
2022-11-15T02:18:42.448Z,99.99
2022-11-15T02:19:42.452Z,99.72
2022-11-15T02:20:42.446Z,99.99
2022-11-15T02:21:42.438Z,99.87
2022-11-15T02:22:42.433Z,99.82
2022-11-15T02:23:42.470Z,99.62
2022-11-15T02:24:42.426Z,99.72
2022-11-15T02:25:42.424Z,99.72
2022-11-15T02:26:42.425Z,99.82
2022-11-15T02:27:42.421Z,99.62
2022-11-15T02:28:42.416Z,99.82
2022-11-15T02:29:42.413Z,99.82
2022-11-15T02:30:42.414Z,99.52
2022-11-15T02:31:42.407Z,99.99
2022-11-15T02:32:42.413Z,99.62
2022-11-15T02:33:42.402Z,99.93
2022-11-15T02:34:42.398Z,99.82
2022-11-15T02:35:42.396Z,99.82
2022-11-15T02:36:42.389Z,99.72
2022-11-15T02:37:42.385Z,99.82
2022-11-15T02:38:42.381Z,99.82
2022-11-15T02:39:42.399Z,99.72
2022-11-15T02:40:42.374Z,99.82
2022-11-15T02:41:42.375Z,99.93
2022-11-15T02:42:42.373Z,99.82
2022-11-15T02:43:42.368Z,99.99
2022-11-15T02:44:42.365Z,99.82
2022-11-15T02:45:42.364Z,99.99
2022-11-15T02:46:42.361Z,99.82
2022-11-15T02:47:42.356Z,99.82
2022-11-15T02:48:42.352Z,99.62
2022-11-15T02:49:42.346Z,99.72
2022-11-15T02:50:42.348Z,99.82
2022-11-15T02:51:42.342Z,99.99
2022-11-15T02:52:42.341Z,99.99
2022-11-15T02:53:42.336Z,99.99
2022-11-15T02:54:42.333Z,99.99
2022-11-15T02:55:42.350Z,99.99
2022-11-15T02:56:42.326Z,99.99
2022-11-15T02:57:42.324Z,99.99
2022-11-15T02:58:42.319Z,99.99
2022-11-15T02:59:42.318Z,99.99
2022-11-15T03:00:42.385Z,99.99
2022-11-15T03:01:42.308Z,99.99
2022-11-15T03:02:42.309Z,99.99
2022-11-15T03:03:42.307Z,99.99
2022-11-15T03:04:42.303Z,99.99
2022-11-15T03:05:42.303Z,99.99
2022-11-15T03:06:42.300Z,99.99
2022-11-15T03:07:42.292Z,99.99
2022-11-15T03:08:42.290Z,99.99
2022-11-15T03:09:42.285Z,99.99
2022-11-15T03:10:42.284Z,99.99
2022-11-15T03:11:42.298Z,99.99
2022-11-15T03:12:42.275Z,99.98
2022-11-15T03:13:42.272Z,99.99
2022-11-15T03:14:42.268Z,99.99
2022-11-15T03:15:42.265Z,99.99
2022-11-15T03:16:42.265Z,99.99
2022-11-15T03:17:42.260Z,99.99
2022-11-15T03:18:42.260Z,99.99
2022-11-15T03:19:42.252Z,99.99
2022-11-15T03:20:42.249Z,99.99
2022-11-15T03:21:42.245Z,99.99
2022-11-15T03:22:42.242Z,99.99
2022-11-15T03:23:42.240Z,99.99
2022-11-15T03:24:42.242Z,99.99
2022-11-15T03:25:42.253Z,99.99
2022-11-15T03:26:42.231Z,99.98
2022-11-15T03:27:42.247Z,99.99
2022-11-15T03:28:42.232Z,99.68
2022-11-15T03:29:42.221Z,99.78
2022-11-15T03:30:42.219Z,99.99
2022-11-15T03:31:47.036Z,99.68
2022-11-15T03:32:42.216Z,99.68
2022-11-15T03:33:42.210Z,99.68
2022-11-15T03:34:42.207Z,99.88
2022-11-15T03:35:42.203Z,99.88
2022-11-15T03:36:42.223Z,99.88
2022-11-15T03:37:42.205Z,99.99
2022-11-15T03:38:42.287Z,99.88
2022-11-15T03:39:42.196Z,99.68
2022-11-15T03:40:42.192Z,99.78
2022-11-15T03:41:42.184Z,99.78
2022-11-15T03:42:42.187Z,99.78
2022-11-15T03:43:42.200Z,99.68
2022-11-15T03:44:42.176Z,99.68
2022-11-15T03:45:42.172Z,99.78
2022-11-15T03:46:42.177Z,99.78
2022-11-15T03:47:42.170Z,99.68
2022-11-15T03:48:42.172Z,99.78
2022-11-15T03:49:42.362Z,99.68
2022-11-15T03:50:42.159Z,99.99
2022-11-15T03:51:42.154Z,99.99
2022-11-15T03:52:42.154Z,99.99
2022-11-15T03:53:42.147Z,99.99
2022-11-15T03:54:42.150Z,99.68
2022-11-15T03:55:42.146Z,99.78
2022-11-15T03:56:42.142Z,99.68
2022-11-15T03:57:42.147Z,99.78
2022-11-15T03:58:42.136Z,99.99
2022-11-15T03:59:42.167Z,99.99
2022-11-15T04:00:42.179Z,99.99
2022-11-15T04:01:42.166Z,99.99
2022-11-15T04:02:42.140Z,99.99
2022-11-15T04:03:42.120Z,99.99
2022-11-15T04:04:42.117Z,99.99
2022-11-15T04:05:42.110Z,99.99
2022-11-15T04:06:42.114Z,99.99
2022-11-15T04:07:42.108Z,99.99
2022-11-15T04:08:42.106Z,99.99
2022-11-15T04:09:42.100Z,99.99
2022-11-15T04:10:42.100Z,99.99
2022-11-15T04:11:42.101Z,99.98
2022-11-15T04:12:42.096Z,99.99
2022-11-15T04:13:42.089Z,99.98
2022-11-15T04:14:42.095Z,99.99
2022-11-15T04:15:42.104Z,99.99
2022-11-15T04:16:44.085Z,99.99
2022-11-15T04:17:42.077Z,99.98
2022-11-15T04:18:42.077Z,99.99
2022-11-15T04:19:42.071Z,99.98
2022-11-15T04:20:42.070Z,99.98
2022-11-15T04:21:42.064Z,99.98
2022-11-15T04:22:42.065Z,99.99
2022-11-15T04:23:42.058Z,99.98
2022-11-15T04:24:42.056Z,99.99
2022-11-15T04:25:42.056Z,99.78
2022-11-15T04:26:42.060Z,99.98
2022-11-15T04:27:42.060Z,99.99
2022-11-15T04:28:42.051Z,99.99
2022-11-15T04:29:42.041Z,99.99
2022-11-15T04:30:42.040Z,99.99
2022-11-15T04:31:42.053Z,99.99
2022-11-15T04:32:42.033Z,99.99
2022-11-15T04:33:42.029Z,99.99
2022-11-15T04:34:42.028Z,99.99
2022-11-15T04:35:42.023Z,99.99
2022-11-15T04:36:42.018Z,99.99
2022-11-15T04:37:47.916Z,99.99
2022-11-15T04:38:42.016Z,99.99
2022-11-15T04:39:42.013Z,99.99
2022-11-15T04:40:42.012Z,99.99
2022-11-15T04:41:42.008Z,99.99
2022-11-15T04:42:42.001Z,99.99
2022-11-15T04:43:42.000Z,99.99
2022-11-15T04:44:41.997Z,99.99
2022-11-15T04:45:41.992Z,99.99
2022-11-15T04:46:41.990Z,99.99
2022-11-15T04:47:42.006Z,99.99
2022-11-15T04:48:41.984Z,99.99
2022-11-15T04:49:41.983Z,99.99
2022-11-15T04:50:42.229Z,99.99
2022-11-15T04:51:41.977Z,99.99
2022-11-15T04:52:41.974Z,99.99
2022-11-15T04:53:41.968Z,99.99
2022-11-15T04:54:41.968Z,99.99
2022-11-15T04:55:41.964Z,99.99
2022-11-15T04:56:41.962Z,99.99
2022-11-15T04:57:41.955Z,99.99
2022-11-15T04:58:41.958Z,99.99
2022-11-15T04:59:41.954Z,99.99
2022-11-15T05:00:41.965Z,99.99
2022-11-15T05:01:44.884Z,99.99
2022-11-15T05:02:41.943Z,99.99
2022-11-15T05:03:41.967Z,99.99
2022-11-15T05:04:41.936Z,99.99
2022-11-15T05:05:41.932Z,99.99
2022-11-15T05:06:41.932Z,99.99
2022-11-15T05:07:41.927Z,99.99
2022-11-15T05:08:41.924Z,99.99
2022-11-15T05:09:41.921Z,99.99
2022-11-15T05:10:41.920Z,99.99
2022-11-15T05:11:41.923Z,99.99
2022-11-15T05:12:41.911Z,99.99
2022-11-15T05:13:41.913Z,99.99
2022-11-15T05:14:41.906Z,99.99
2022-11-15T05:15:41.906Z,99.99
2022-11-15T05:16:41.902Z,99.99
2022-11-15T05:17:41.901Z,99.99
2022-11-15T05:18:41.892Z,99.99
2022-11-15T05:19:41.911Z,99.99
2022-11-15T05:20:41.894Z,99.99
2022-11-15T05:21:41.885Z,99.99
2022-11-15T05:22:41.896Z,99.99
2022-11-15T05:23:41.884Z,99.99
2022-11-15T05:24:41.878Z,99.99
2022-11-15T05:25:41.874Z,99.99
2022-11-15T05:26:41.872Z,99.99
2022-11-15T05:27:41.865Z,99.99
2022-11-15T05:28:41.868Z,99.99
2022-11-15T05:29:41.859Z,99.99
2022-11-15T05:30:41.875Z,99.99
2022-11-15T05:31:41.854Z,99.99
2022-11-15T05:32:41.854Z,99.99
2022-11-15T05:33:41.953Z,99.99
2022-11-15T05:34:41.849Z,99.99
2022-11-15T05:35:41.860Z,99.99
2022-11-15T05:36:41.846Z,99.99
2022-11-15T05:37:41.837Z,99.99
2022-11-15T05:38:41.845Z,99.99
2022-11-15T05:39:41.834Z,99.99
2022-11-15T05:40:41.830Z,99.99
2022-11-15T05:41:41.862Z,99.99
2022-11-15T05:42:41.827Z,99.99
2022-11-15T05:43:41.825Z,99.99
2022-11-15T05:44:41.817Z,99.99
2022-11-15T05:45:41.815Z,99.99
2022-11-15T05:46:41.814Z,99.99
2022-11-15T05:47:41.812Z,99.99
2022-11-15T05:48:41.805Z,99.99
2022-11-15T05:49:41.803Z,99.99
2022-11-15T05:50:41.798Z,99.99
2022-11-15T05:51:41.815Z,99.99
2022-11-15T05:52:41.795Z,99.99
2022-11-15T05:53:41.789Z,99.99
2022-11-15T05:54:41.789Z,99.99
2022-11-15T05:55:41.790Z,99.99
2022-11-15T05:56:41.780Z,99.99
2022-11-15T05:57:41.778Z,99.99
2022-11-15T05:58:41.782Z,99.99
2022-11-15T05:59:41.778Z,99.99
2022-11-15T06:00:41.796Z,99.99
2022-11-15T06:01:41.849Z,99.99
2022-11-15T06:02:41.765Z,99.99
2022-11-15T06:03:41.761Z,99.99
2022-11-15T06:04:41.761Z,99.99
2022-11-15T06:05:41.754Z,99.99
2022-11-15T06:06:41.756Z,99.99
2022-11-15T06:07:41.767Z,99.99
2022-11-15T06:08:41.748Z,99.99
2022-11-15T06:09:41.743Z,99.99
2022-11-15T06:10:41.749Z,99.99
2022-11-15T06:11:41.745Z,99.99
2022-11-15T06:12:41.738Z,99.99
2022-11-15T06:13:41.735Z,99.99
2022-11-15T06:14:41.734Z,99.99
2022-11-15T06:15:41.726Z,99.99
2022-11-15T06:16:41.728Z,99.99
2022-11-15T06:17:41.723Z,99.99
2022-11-15T06:18:41.718Z,99.99
2022-11-15T06:19:41.714Z,99.99
2022-11-15T06:20:41.716Z,99.99
2022-11-15T06:21:41.707Z,99.99
2022-11-15T06:22:41.709Z,99.99
2022-11-15T06:23:41.725Z,99.99
2022-11-15T06:24:41.708Z,99.99
2022-11-15T06:25:41.705Z,99.99
2022-11-15T06:26:41.697Z,99.99
2022-11-15T06:27:41.719Z,99.99
2022-11-15T06:28:41.686Z,99.99
2022-11-15T06:29:41.687Z,99.99
2022-11-15T06:30:41.688Z,99.99
2022-11-15T06:31:41.680Z,99.99
2022-11-15T06:32:41.678Z,99.99
2022-11-15T06:33:41.675Z,99.99
2022-11-15T06:34:41.673Z,99.99
2022-11-15T06:35:41.667Z,99.99
2022-11-15T06:36:41.667Z,99.99
2022-11-15T06:37:41.665Z,99.99
2022-11-15T06:38:41.666Z,99.99
2022-11-15T06:39:41.795Z,99.99
2022-11-15T06:40:41.654Z,99.99
2022-11-15T06:41:41.650Z,99.99
2022-11-15T06:42:41.650Z,99.99
2022-11-15T06:43:41.656Z,99.99
2022-11-15T06:44:41.644Z,99.99
2022-11-15T06:45:41.643Z,99.99
2022-11-15T06:46:41.660Z,99.99
2022-11-15T06:47:41.639Z,99.99
2022-11-15T06:48:41.663Z,99.99
2022-11-15T06:49:41.628Z,99.99
2022-11-15T06:50:41.632Z,99.99
2022-11-15T06:51:41.625Z,99.99
2022-11-15T06:52:41.620Z,99.99
2022-11-15T06:53:41.615Z,99.99
2022-11-15T06:54:41.618Z,99.99
2022-11-15T06:55:41.979Z,99.99
2022-11-15T06:56:41.608Z,99.99
2022-11-15T06:57:41.605Z,99.99
2022-11-15T06:58:41.630Z,99.99
2022-11-15T06:59:41.620Z,99.99
2022-11-15T07:00:41.600Z,99.99
2022-11-15T07:01:41.716Z,99.99
2022-11-15T07:02:41.596Z,99.99
2022-11-15T07:03:41.598Z,99.99
2022-11-15T07:04:41.592Z,99.99
2022-11-15T07:05:41.590Z,99.99
2022-11-15T07:06:41.580Z,99.99
2022-11-15T07:07:41.582Z,99.93
2022-11-15T07:08:41.571Z,99.99
2022-11-15T07:09:41.571Z,99.99
2022-11-15T07:10:41.566Z,99.99
2022-11-15T07:11:41.588Z,99.73
2022-11-15T07:12:41.561Z,99.73
2022-11-15T07:13:41.558Z,99.73
2022-11-15T07:14:41.556Z,99.84
2022-11-15T07:15:41.553Z,99.84
2022-11-15T07:16:41.550Z,99.99
2022-11-15T07:17:41.546Z,99.22
2022-11-15T07:18:41.543Z,99.99
2022-11-15T07:19:41.592Z,99.73
2022-11-15T07:20:41.537Z,99.84
2022-11-15T07:21:41.540Z,99.32
2022-11-15T07:22:41.536Z,99.11
2022-11-15T07:23:41.533Z,99.32
2022-11-15T07:24:41.527Z,99.52
2022-11-15T07:26:41.519Z,99.52
2022-11-15T07:27:41.559Z,99.22
2022-11-15T07:28:41.516Z,99.11
2022-11-15T07:29:41.517Z,99.11
2022-11-15T07:30:45.236Z,99.11
2022-11-15T07:31:41.518Z,99.22
2022-11-15T07:32:41.509Z,99.27
2022-11-15T07:33:41.501Z,99.11
2022-11-15T07:34:41.496Z,98.71
2022-11-15T07:35:41.497Z,98.91
2022-11-15T07:36:41.491Z,99.11
2022-11-15T07:37:41.490Z,99.16
2022-11-15T07:38:43.172Z,99.02
2022-11-15T07:39:41.487Z,99.11
2022-11-15T07:40:41.479Z,99.02
2022-11-15T07:41:41.483Z,98.61
2022-11-15T07:42:41.477Z,99.22
2022-11-15T07:43:41.555Z,98.71
2022-11-15T07:44:41.471Z,98.40
2022-11-15T07:45:41.469Z,98.81
2022-11-15T07:46:41.464Z,98.61
2022-11-15T07:47:41.469Z,98.40
2022-11-15T07:48:45.575Z,98.61
2022-11-15T07:49:41.462Z,98.71
2022-11-15T07:50:41.454Z,98.61
2022-11-15T07:51:41.453Z,98.71
2022-11-15T07:52:41.446Z,98.71
2022-11-15T07:53:41.453Z,98.71
2022-11-15T07:54:41.450Z,98.71
2022-11-15T07:55:41.652Z,98.71
2022-11-15T07:56:41.452Z,98.81
2022-11-15T07:57:41.436Z,98.50
2022-11-15T07:58:41.434Z,98.61
2022-11-15T07:59:41.460Z,98.40
2022-11-15T08:00:41.428Z,98.50
2022-11-15T08:01:41.532Z,98.50
2022-11-15T08:02:41.681Z,98.30
2022-11-15T08:03:41.419Z,97.99
2022-11-15T08:04:41.413Z,98.10
2022-11-15T08:05:41.411Z,97.99
2022-11-15T08:06:41.408Z,97.38
2022-11-15T08:07:41.403Z,97.89
2022-11-15T08:08:41.404Z,97.89
2022-11-15T08:09:41.399Z,97.17
2022-11-15T08:10:41.397Z,97.08
2022-11-15T08:11:41.394Z,97.08
2022-11-15T08:12:41.444Z,97.49
2022-11-15T08:13:41.387Z,97.28
2022-11-15T08:14:41.385Z,97.38
2022-11-15T08:15:41.405Z,97.49
2022-11-15T08:16:41.380Z,96.97
2022-11-15T08:17:41.378Z,97.17
2022-11-15T08:18:41.392Z,97.38
2022-11-15T08:19:41.371Z,97.69
2022-11-15T08:20:41.366Z,97.28
2022-11-15T08:21:41.364Z,96.77
2022-11-15T08:22:41.364Z,96.15
2022-11-15T08:23:41.362Z,96.36
2022-11-15T08:24:41.356Z,96.15
2022-11-15T08:25:41.356Z,96.46
2022-11-15T08:26:41.351Z,96.26
2022-11-15T08:27:41.444Z,96.46
2022-11-15T08:28:41.343Z,96.56
2022-11-15T08:29:41.356Z,96.56
2022-11-15T08:30:41.337Z,96.36
2022-11-15T08:31:41.364Z,96.26
2022-11-15T08:32:41.330Z,96.36
2022-11-15T08:33:41.329Z,95.95
2022-11-15T08:34:41.324Z,96.36
2022-11-15T08:35:41.323Z,96.46
2022-11-15T08:36:45.902Z,96.26
2022-11-15T08:37:41.318Z,96.26
2022-11-15T08:38:41.315Z,96.26
2022-11-15T08:39:41.311Z,96.15
2022-11-15T08:40:41.308Z,95.85
2022-11-15T08:41:41.306Z,96.36
2022-11-15T08:42:41.303Z,96.15
2022-11-15T08:43:41.301Z,96.46
2022-11-15T08:44:41.295Z,96.46
2022-11-15T08:45:41.300Z,96.26
2022-11-15T08:46:41.290Z,96.05
2022-11-15T08:47:41.362Z,95.95
2022-11-15T08:48:41.284Z,95.95
2022-11-15T08:49:41.285Z,95.60
2022-11-15T08:50:41.276Z,95.75
2022-11-15T08:51:41.275Z,96.15
2022-11-15T08:52:41.271Z,95.64
2022-11-15T08:53:41.276Z,95.80
2022-11-15T08:54:41.268Z,95.95
2022-11-15T08:55:41.266Z,95.64
2022-11-15T08:56:41.268Z,95.60
2022-11-15T08:57:41.260Z,96.01
2022-11-15T08:58:41.299Z,96.31
2022-11-15T08:59:41.255Z,96.21
2022-11-15T09:00:41.251Z,96.11
2022-11-15T09:01:41.277Z,96.21
2022-11-15T09:02:41.246Z,96.21
2022-11-15T09:03:41.298Z,96.11
2022-11-15T09:04:41.237Z,95.60
2022-11-15T09:05:41.234Z,96.01
2022-11-15T09:06:43.379Z,95.60
2022-11-15T09:07:41.232Z,95.80
2022-11-15T09:08:47.339Z,95.50
2022-11-15T09:09:41.221Z,95.50
2022-11-15T09:10:41.219Z,95.39
2022-11-15T09:11:41.226Z,95.29
2022-11-15T09:12:41.212Z,95.80
2022-11-15T09:13:41.213Z,96.05
2022-11-15T09:14:41.207Z,95.90
2022-11-15T09:15:41.214Z,96.21
2022-11-15T09:16:41.202Z,96.31
2022-11-15T09:17:41.203Z,95.80
2022-11-15T09:18:41.198Z,95.80
2022-11-15T09:19:41.230Z,96.11
2022-11-15T09:20:41.200Z,95.50
2022-11-15T09:21:41.190Z,95.80
2022-11-15T09:22:41.188Z,95.80
2022-11-15T09:23:41.183Z,96.01
2022-11-15T09:24:41.180Z,96.21
2022-11-15T09:25:41.182Z,96.21
2022-11-15T09:26:41.175Z,95.70
2022-11-15T09:27:41.181Z,95.80
2022-11-15T09:28:41.168Z,95.60
2022-11-15T09:29:41.174Z,95.50
2022-11-15T09:30:41.164Z,95.19
2022-11-15T09:31:41.165Z,95.39
2022-11-15T09:32:41.156Z,95.50
2022-11-15T09:33:41.153Z,95.19
2022-11-15T09:34:41.155Z,95.19
2022-11-15T09:35:41.167Z,95.50
2022-11-15T09:36:41.145Z,95.60
2022-11-15T09:37:41.145Z,95.80
2022-11-15T09:38:41.139Z,95.76
2022-11-15T09:39:41.138Z,95.39
2022-11-15T09:40:41.137Z,94.89
2022-11-15T09:41:41.131Z,94.78
2022-11-15T09:42:41.402Z,94.12
2022-11-15T09:43:41.128Z,93.76
2022-11-15T09:44:41.122Z,93.25
2022-11-15T09:45:41.132Z,93.35
2022-11-15T09:46:41.133Z,93.45
2022-11-15T09:47:41.150Z,93.51
2022-11-15T09:48:41.112Z,93.55
2022-11-15T09:49:41.108Z,93.31
2022-11-15T09:50:41.107Z,93.62
2022-11-15T09:51:41.124Z,92.29
2022-11-15T09:52:41.101Z,92.08
2022-11-15T09:54:30.483Z,91.98
2022-11-15T09:54:56.700Z,92.39
2022-11-15T09:55:41.095Z,93.00
2022-11-15T09:56:41.088Z,93.00
2022-11-15T09:57:41.150Z,93.00
2022-11-15T09:58:41.089Z,93.31
2022-11-15T09:59:41.083Z,93.41
2022-11-15T10:00:48.756Z,91.57
2022-11-15T10:01:41.140Z,91.16
2022-11-15T10:02:41.073Z,90.25
2022-11-15T10:03:41.072Z,90.66
2022-11-15T10:04:41.066Z,90.66
2022-11-15T10:05:41.065Z,90.66
2022-11-15T10:06:41.060Z,90.35
2022-11-15T10:07:41.078Z,90.66
2022-11-15T10:08:41.054Z,90.66
2022-11-15T10:09:41.054Z,90.45
2022-11-15T10:10:41.052Z,90.86
2022-11-15T10:11:41.054Z,90.49
2022-11-15T10:12:41.045Z,89.84
2022-11-15T10:13:41.042Z,90.04
2022-11-15T10:14:41.041Z,89.98
2022-11-15T10:15:41.043Z,89.98
2022-11-15T10:16:41.032Z,88.82
2022-11-15T10:17:41.033Z,89.12
2022-11-15T10:18:41.025Z,90.70
2022-11-15T10:19:41.024Z,90.55
2022-11-15T10:20:41.020Z,91.06
2022-11-15T10:21:41.026Z,90.35
2022-11-15T10:22:41.023Z,88.20
2022-11-15T10:23:41.031Z,87.29
2022-11-15T10:24:41.010Z,88.24
2022-11-15T10:25:41.007Z,88.82
2022-11-15T10:26:41.005Z,88.20
2022-11-15T10:27:41.006Z,88.82
2022-11-15T10:28:40.997Z,88.51
2022-11-15T10:29:41.001Z,87.59
2022-11-15T10:30:40.992Z,87.59
2022-11-15T10:31:40.996Z,88.92
2022-11-15T10:32:41.008Z,88.20
2022-11-15T10:33:40.991Z,89.02
2022-11-15T10:34:40.990Z,89.84
2022-11-15T10:35:40.984Z,89.63
2022-11-15T10:36:43.845Z,89.94
2022-11-15T10:37:40.974Z,89.02
2022-11-15T10:38:40.979Z,88.31
2022-11-15T10:39:40.991Z,88.26
2022-11-15T10:40:40.968Z,88.00
2022-11-15T10:41:40.972Z,86.83
2022-11-15T10:42:40.960Z,87.24
2022-11-15T10:43:40.960Z,87.76
2022-11-15T10:44:40.953Z,88.17
2022-11-15T10:45:40.957Z,88.17
2022-11-15T10:46:48.269Z,88.88
2022-11-15T10:47:40.953Z,88.67
2022-11-15T10:48:40.944Z,87.65
2022-11-15T10:49:40.956Z,87.24
2022-11-15T10:50:40.940Z,87.55
2022-11-15T10:51:40.944Z,88.57
2022-11-15T10:52:40.933Z,87.45
2022-11-15T10:53:40.929Z,87.65
2022-11-15T10:54:40.924Z,85.41
2022-11-15T10:55:41.207Z,85.75
2022-11-15T10:56:40.924Z,86.43
2022-11-15T10:57:40.923Z,87.29
2022-11-15T10:58:40.914Z,86.33
2022-11-15T10:59:40.913Z,86.22
2022-11-15T11:00:40.938Z,84.59
2022-11-15T11:01:40.934Z,85.21
2022-11-15T11:02:40.916Z,85.21
2022-11-15T11:03:40.910Z,83.16
2022-11-15T11:04:40.898Z,83.78
2022-11-15T11:05:42.697Z,83.51
2022-11-15T11:06:40.907Z,83.26
2022-11-15T11:07:40.897Z,82.24
2022-11-15T11:08:40.890Z,83.06
2022-11-15T11:09:40.887Z,83.47
2022-11-15T11:11:02.226Z,83.87
2022-11-15T11:11:40.903Z,84.28
2022-11-15T11:12:40.877Z,84.80
2022-11-15T11:13:40.897Z,85.30
2022-11-15T11:14:40.877Z,85.51
2022-11-15T11:15:40.870Z,86.02
2022-11-15T11:16:40.865Z,85.71
2022-11-15T11:17:40.864Z,85.41
2022-11-15T11:18:40.861Z,85.30
2022-11-15T11:19:40.858Z,85.00
2022-11-15T11:20:40.858Z,85.21
2022-11-15T11:21:40.854Z,85.30
2022-11-15T11:22:40.857Z,84.69
2022-11-15T11:23:40.846Z,85.61
2022-11-15T11:24:40.851Z,85.30
2022-11-15T11:25:40.839Z,82.65
2022-11-15T11:26:40.836Z,84.08
2022-11-15T11:27:40.854Z,83.57
2022-11-15T11:28:40.836Z,81.77
2022-11-15T11:29:40.827Z,82.55
2022-11-15T11:30:40.828Z,81.84
2022-11-15T11:31:40.825Z,81.84
2022-11-15T11:32:40.822Z,82.24
2022-11-15T11:33:40.819Z,83.06
2022-11-15T11:34:40.820Z,83.57
2022-11-15T11:35:40.816Z,83.47
2022-11-15T11:36:40.815Z,83.67
2022-11-15T11:37:40.807Z,83.06
2022-11-15T11:38:40.806Z,83.47
2022-11-15T11:39:40.800Z,83.98
2022-11-15T11:40:40.798Z,83.98
2022-11-15T11:41:40.795Z,84.18
2022-11-15T11:42:40.794Z,82.86
2022-11-15T11:43:40.809Z,81.43
2022-11-15T11:44:40.789Z,81.46
2022-11-15T11:45:46.152Z,82.24
2022-11-15T11:46:40.789Z,82.96
2022-11-15T11:47:40.780Z,82.24
2022-11-15T11:48:40.780Z,81.23
2022-11-15T11:49:40.773Z,82.45
2022-11-15T11:50:40.774Z,79.90
2022-11-15T11:51:40.770Z,77.86
2022-11-15T11:52:40.765Z,77.25
2022-11-15T11:53:40.762Z,79.28
2022-11-15T11:54:40.760Z,80.41
2022-11-15T11:55:40.756Z,79.59
2022-11-15T11:56:40.763Z,78.57
2022-11-15T11:57:40.769Z,76.84
2022-11-15T11:58:40.790Z,79.14
2022-11-15T11:59:40.779Z,77.45
2022-11-15T12:00:40.746Z,78.57
2022-11-15T12:01:40.835Z,78.06
2022-11-15T12:02:40.882Z,78.67
2022-11-15T12:03:40.737Z,80.00
2022-11-15T12:04:40.739Z,80.82
2022-11-15T12:05:40.734Z,80.61
2022-11-15T12:06:40.730Z,77.55
2022-11-15T12:07:40.728Z,78.06
2022-11-15T12:08:40.725Z,78.16
2022-11-15T12:09:40.722Z,78.47
2022-11-15T12:10:40.729Z,80.82
2022-11-15T12:11:40.717Z,79.49
2022-11-15T12:12:40.718Z,79.90
2022-11-15T12:13:40.715Z,80.30
2022-11-15T12:14:40.706Z,79.96
2022-11-15T12:15:40.728Z,80.37
2022-11-15T12:16:40.701Z,79.18
2022-11-15T12:17:40.697Z,79.45
2022-11-15T12:18:40.694Z,80.47
2022-11-15T12:19:40.695Z,80.00
2022-11-15T12:20:40.697Z,79.45
2022-11-15T12:21:40.691Z,78.84
2022-11-15T12:22:40.688Z,79.55
2022-11-15T12:23:40.681Z,78.13
2022-11-15T12:24:40.684Z,78.13
2022-11-15T12:25:40.675Z,77.82
2022-11-15T12:26:40.678Z,77.62
2022-11-15T12:27:40.675Z,78.13
2022-11-15T12:28:58.315Z,78.74
2022-11-15T12:29:40.664Z,78.94
2022-11-15T12:30:40.665Z,79.45
2022-11-15T12:31:40.680Z,80.37
2022-11-15T12:32:40.833Z,80.07
2022-11-15T12:33:40.654Z,80.57
2022-11-15T12:34:40.652Z,81.09
2022-11-15T12:35:40.649Z,79.45
2022-11-15T12:36:40.654Z,79.86
2022-11-15T12:37:40.643Z,78.94
2022-11-15T12:38:40.644Z,79.66
2022-11-15T12:39:40.638Z,80.47
2022-11-15T12:40:40.683Z,80.37
2022-11-15T12:41:40.649Z,79.55
2022-11-15T12:42:40.646Z,79.55
2022-11-15T12:43:40.628Z,80.57
2022-11-15T12:44:40.630Z,81.80
2022-11-15T12:45:40.621Z,81.59
2022-11-15T12:46:40.623Z,79.04
2022-11-15T12:47:40.637Z,80.27
2022-11-15T12:48:40.614Z,79.86
2022-11-15T12:49:40.614Z,80.07
2022-11-15T12:50:40.614Z,80.88
2022-11-15T12:51:40.607Z,81.59
2022-11-15T12:52:40.607Z,81.29
2022-11-15T12:53:40.602Z,80.27